createdAt,value
2018-04-29T00:00:30.427Z,69.23
2018-04-29T00:02:58.500Z,69.79
2018-04-29T00:05:26.696Z,70.39
2018-04-29T00:07:54.588Z,70.17
2018-04-29T00:10:23.149Z,69.83
2018-04-29T00:12:51.056Z,69.84
2018-04-29T00:15:19.010Z,70.34
2018-04-29T00:17:46.902Z,70.07
2018-04-29T00:20:14.828Z,69.96
2018-04-29T00:22:42.733Z,70.16
2018-04-29T00:25:10.643Z,70.35
2018-04-29T00:27:38.555Z,70.47
2018-04-29T00:30:06.475Z,70.18
2018-04-29T00:32:34.420Z,70.02
2018-04-29T00:35:02.319Z,70.14
2018-04-29T00:37:30.318Z,70.33
2018-04-29T00:39:58.193Z,70.84
2018-04-29T00:42:26.103Z,70.91
2018-04-29T00:44:54.004Z,70.59
2018-04-29T00:47:21.919Z,70.81
2018-04-29T00:49:49.829Z,70.93
2018-04-29T00:52:17.754Z,70.71
2018-04-29T00:54:45.824Z,70.97
2018-04-29T00:57:13.771Z,70.91
2018-04-29T00:59:41.696Z,71.51
2018-04-29T01:02:09.611Z,71.50
2018-04-29T01:04:37.536Z,71.44
2018-04-29T01:07:05.541Z,71.48
2018-04-29T01:09:33.475Z,71.53
2018-04-29T01:12:01.388Z,71.64
2018-04-29T01:14:29.343Z,71.85
2018-04-29T01:16:57.256Z,72.13
2018-04-29T01:19:25.182Z,72.19
2018-04-29T01:21:53.160Z,72.38
2018-04-29T01:24:21.063Z,72.00
2018-04-29T01:26:49.009Z,72.18
2018-04-29T01:29:16.912Z,72.48
2018-04-29T01:31:44.833Z,72.64
2018-04-29T01:34:12.741Z,72.79
2018-04-29T01:36:40.671Z,73.09
2018-04-29T01:39:08.586Z,73.42
2018-04-29T01:41:36.519Z,73.67
2018-04-29T01:44:04.424Z,73.48
2018-04-29T01:46:32.359Z,73.20
2018-04-29T01:49:00.257Z,73.60
2018-04-29T01:51:28.168Z,73.38
2018-04-29T01:53:56.076Z,72.73
2018-04-29T01:56:23.998Z,73.03
2018-04-29T01:58:51.912Z,73.02
2018-04-29T02:01:19.839Z,73.49
2018-04-29T02:03:47.756Z,73.48
2018-04-29T02:06:15.676Z,73.25
2018-04-29T02:08:43.591Z,73.26
2018-04-29T02:11:11.502Z,73.20
2018-04-29T02:13:39.415Z,73.36
2018-04-29T02:16:07.328Z,73.35
2018-04-29T02:18:35.244Z,73.44
2018-04-29T02:21:03.154Z,73.63
2018-04-29T02:23:31.088Z,72.96
2018-04-29T02:25:59.081Z,72.73
2018-04-29T02:28:26.975Z,73.22
2018-04-29T02:30:54.891Z,72.71
2018-04-29T02:33:22.807Z,72.96
2018-04-29T02:35:50.716Z,73.19
2018-04-29T02:38:18.639Z,73.38
2018-04-29T02:40:46.572Z,73.62
2018-04-29T02:43:14.465Z,73.80
2018-04-29T02:45:42.371Z,73.59
2018-04-29T02:48:10.288Z,73.42
2018-04-29T02:50:38.189Z,73.71
2018-04-29T02:53:06.144Z,74.62
2018-04-29T02:55:34.069Z,74.76
2018-04-29T02:58:01.989Z,75.10
2018-04-29T03:00:29.899Z,74.92
2018-04-29T03:02:57.855Z,75.72
2018-04-29T03:05:25.761Z,75.47
2018-04-29T03:07:53.709Z,75.79
2018-04-29T03:10:21.624Z,75.96
2018-04-29T03:12:49.529Z,75.93
2018-04-29T03:15:17.452Z,76.08
2018-04-29T03:17:45.365Z,76.47
2018-04-29T03:20:13.293Z,76.50
2018-04-29T03:22:41.199Z,76.18
2018-04-29T03:25:09.131Z,76.15
2018-04-29T03:27:37.035Z,76.98
2018-04-29T03:30:04.969Z,77.29
2018-04-29T03:32:32.875Z,76.92
2018-04-29T03:35:00.792Z,76.53
2018-04-29T03:37:28.732Z,76.82
2018-04-29T03:39:56.656Z,76.46
2018-04-29T03:42:24.671Z,76.53
2018-04-29T03:44:52.591Z,76.76
2018-04-29T03:47:20.524Z,76.61
2018-04-29T03:49:48.442Z,77.06
2018-04-29T03:52:16.331Z,77.21
2018-04-29T03:54:44.330Z,76.37
2018-04-29T03:57:24.091Z,76.90
2018-04-29T04:00:03.821Z,76.08
2018-04-29T04:02:43.447Z,75.38
2018-04-29T04:05:11.354Z,74.65
2018-04-29T04:07:39.266Z,74.09
2018-04-29T04:10:07.751Z,73.27
2018-04-29T04:12:35.667Z,73.55
2018-04-29T04:15:03.575Z,73.35
2018-04-29T04:17:31.493Z,73.72
2018-04-29T04:19:59.420Z,73.36
2018-04-29T04:22:27.340Z,72.61
2018-04-29T04:24:55.261Z,72.51
2018-04-29T04:27:23.172Z,72.46
2018-04-29T04:29:51.101Z,72.23
2018-04-29T04:32:19.015Z,71.83
2018-04-29T04:34:46.919Z,72.56
2018-04-29T04:37:14.845Z,73.25
2018-04-29T04:39:42.752Z,73.37
2018-04-29T04:42:10.672Z,73.57
2018-04-29T04:44:38.569Z,73.64
2018-04-29T04:47:06.486Z,73.82
2018-04-29T04:49:34.404Z,73.98
2018-04-29T04:52:02.321Z,73.36
2018-04-29T04:54:30.223Z,74.24
2018-04-29T04:56:58.179Z,74.35
2018-04-29T04:59:26.107Z,74.68
2018-04-29T05:01:54.042Z,73.40
2018-04-29T05:04:21.962Z,74.47
2018-04-29T05:06:49.884Z,73.94
2018-04-29T05:09:17.819Z,73.93
2018-04-29T05:11:45.717Z,73.46
2018-04-29T05:14:13.738Z,73.22
2018-04-29T05:16:41.615Z,74.12
2018-04-29T05:19:09.578Z,74.13
2018-04-29T05:21:37.479Z,73.74
2018-04-29T05:24:05.425Z,74.12
2018-04-29T05:26:33.329Z,74.00
2018-04-29T05:29:01.289Z,74.09
2018-04-29T05:31:29.192Z,73.23
2018-04-29T05:33:57.106Z,73.93
2018-04-29T05:36:25.024Z,73.67
2018-04-29T05:38:52.974Z,73.55
2018-04-29T05:41:20.915Z,73.12
2018-04-29T05:43:48.865Z,72.54
2018-04-29T05:46:16.763Z,72.00
2018-04-29T05:48:44.679Z,72.25
2018-04-29T05:51:13.239Z,72.30
2018-04-29T05:53:41.239Z,72.40
2018-04-29T05:56:09.170Z,72.25
2018-04-29T05:58:37.088Z,71.77
2018-04-29T06:01:05.037Z,72.29
2018-04-29T06:03:32.931Z,71.87
2018-04-29T06:06:01.015Z,71.70
2018-04-29T06:08:28.944Z,72.15
2018-04-29T06:10:56.859Z,72.32
2018-04-29T06:13:24.760Z,72.99
2018-04-29T06:15:52.697Z,72.70
2018-04-29T06:18:20.621Z,71.93
2018-04-29T06:20:48.533Z,72.43
2018-04-29T06:23:17.278Z,72.11
2018-04-29T06:25:45.191Z,72.06
2018-04-29T06:28:13.093Z,71.04
2018-04-29T06:30:41.017Z,70.20
2018-04-29T06:33:08.915Z,69.77
2018-04-29T06:35:36.832Z,69.40
2018-04-29T06:38:04.759Z,68.30
2018-04-29T06:40:32.676Z,67.72
2018-04-29T06:43:00.587Z,65.90
2018-04-29T06:45:28.495Z,65.62
2018-04-29T06:47:56.504Z,65.23
2018-04-29T06:50:24.411Z,65.21
2018-04-29T06:52:52.491Z,64.05
2018-04-29T06:55:20.462Z,63.98
2018-04-29T06:57:48.352Z,64.47
2018-04-29T07:00:16.365Z,63.93
2018-04-29T07:02:44.330Z,63.24
2018-04-29T07:05:12.297Z,62.22
2018-04-29T07:07:40.274Z,62.98
2018-04-29T07:10:08.188Z,61.83
2018-04-29T07:12:36.124Z,60.89
2018-04-29T07:15:04.034Z,60.76
2018-04-29T07:17:32.383Z,61.18
2018-04-29T07:20:00.332Z,60.94
2018-04-29T07:22:28.189Z,60.86
2018-04-29T07:24:56.102Z,60.49
2018-04-29T07:27:24.013Z,59.49
2018-04-29T07:29:51.916Z,62.34
2018-04-29T07:32:19.929Z,57.59
2018-04-29T07:34:47.830Z,57.14
2018-04-29T07:37:15.894Z,57.14
2018-04-29T07:39:43.870Z,56.74
2018-04-29T07:42:11.869Z,56.13
2018-04-29T07:44:39.768Z,55.23
2018-04-29T07:47:07.683Z,55.83
2018-04-29T07:49:35.665Z,56.15
2018-04-29T07:52:03.682Z,56.67
2018-04-29T07:54:31.654Z,56.00
2018-04-29T07:56:59.744Z,56.38
2018-04-29T07:59:27.660Z,55.58
2018-04-29T08:01:55.585Z,55.39
2018-04-29T08:04:23.488Z,55.38
2018-04-29T08:06:51.484Z,53.83
2018-04-29T08:09:19.296Z,53.34
2018-04-29T08:11:47.202Z,52.48
2018-04-29T08:14:15.150Z,52.53
2018-04-29T08:16:43.052Z,51.29
2018-04-29T08:19:10.967Z,50.71
2018-04-29T08:21:39.005Z,48.34
2018-04-29T08:24:06.908Z,48.51
2018-04-29T08:26:34.803Z,50.11
2018-04-29T08:29:02.730Z,49.01
2018-04-29T08:31:30.646Z,47.28
2018-04-29T08:33:58.560Z,49.71
2018-04-29T08:36:26.688Z,49.63
2018-04-29T08:38:54.584Z,49.37
2018-04-29T08:41:22.499Z,48.77
2018-04-29T08:43:50.399Z,47.61
2018-04-29T08:46:18.302Z,49.03
2018-04-29T08:48:46.255Z,48.73
2018-04-29T08:51:14.155Z,45.84
2018-04-29T08:53:42.114Z,45.09
2018-04-29T08:56:10.053Z,44.05
2018-04-29T08:58:37.976Z,44.83
2018-04-29T09:01:05.888Z,44.44
2018-04-29T09:03:33.901Z,42.75
2018-04-29T09:06:02.145Z,43.91
2018-04-29T09:08:30.041Z,43.52
2018-04-29T09:10:57.951Z,44.50
2018-04-29T09:13:25.858Z,42.24
2018-04-29T09:15:53.804Z,41.39
2018-04-29T09:18:21.709Z,43.30
2018-04-29T09:20:49.648Z,44.35
2018-04-29T09:23:17.572Z,42.11
2018-04-29T09:25:45.475Z,40.65
2018-04-29T09:28:14.000Z,39.49
2018-04-29T09:30:41.920Z,40.36
2018-04-29T09:33:09.846Z,41.51
2018-04-29T09:35:37.770Z,42.55
2018-04-29T09:38:05.672Z,42.62
2018-04-29T09:40:33.582Z,41.75
2018-04-29T09:43:01.508Z,41.69
2018-04-29T09:45:29.435Z,40.49
2018-04-29T09:47:57.328Z,41.81
2018-04-29T09:50:25.248Z,39.41
2018-04-29T09:52:53.151Z,40.00
2018-04-29T09:55:21.255Z,38.65
2018-04-29T09:57:49.243Z,38.94
2018-04-29T10:00:32.058Z,39.09
2018-04-29T10:03:06.331Z,39.71
2018-04-29T10:05:34.264Z,40.42
2018-04-29T10:08:02.183Z,39.23
2018-04-29T10:10:30.118Z,38.99
2018-04-29T10:12:58.059Z,38.85
2018-04-29T10:15:25.982Z,38.97
2018-04-29T10:17:53.922Z,38.88
2018-04-29T10:20:21.834Z,38.14
2018-04-29T10:22:49.758Z,39.28
2018-04-29T10:25:17.682Z,37.34
2018-04-29T10:27:45.717Z,38.22
2018-04-29T10:30:13.644Z,37.96
2018-04-29T10:32:41.610Z,37.82
2018-04-29T10:35:09.516Z,36.41
2018-04-29T10:37:37.431Z,37.11
2018-04-29T10:40:05.344Z,36.39
2018-04-29T10:42:33.312Z,37.59
2018-04-29T10:45:01.222Z,36.75
2018-04-29T10:47:29.122Z,38.48
2018-04-29T10:49:57.043Z,38.60
2018-04-29T10:52:25.022Z,39.23
2018-04-29T10:54:52.904Z,38.38
2018-04-29T10:57:20.826Z,39.72
2018-04-29T10:59:48.743Z,39.95
2018-04-29T11:02:16.700Z,42.04
2018-04-29T11:04:44.644Z,42.07
2018-04-29T11:07:12.590Z,41.06
2018-04-29T11:09:40.520Z,40.89
2018-04-29T11:12:08.492Z,40.80
2018-04-29T11:14:36.458Z,42.96
2018-04-29T11:17:04.385Z,41.76
2018-04-29T11:19:32.291Z,42.59
2018-04-29T11:22:00.230Z,43.69
2018-04-29T11:24:28.168Z,43.51
2018-04-29T11:26:56.072Z,41.81
2018-04-29T11:29:24.149Z,41.90
2018-04-29T11:31:52.092Z,42.49
2018-04-29T11:34:20.003Z,41.54
2018-04-29T11:36:48.004Z,40.34
2018-04-29T11:39:15.942Z,40.88
2018-04-29T11:41:43.873Z,41.26
2018-04-29T11:44:11.797Z,40.46
2018-04-29T11:46:39.714Z,39.45
2018-04-29T11:49:07.648Z,40.67
2018-04-29T11:51:35.565Z,42.16
2018-04-29T11:54:03.512Z,42.65
2018-04-29T11:56:31.510Z,43.00
2018-04-29T11:58:59.408Z,42.61
2018-04-29T12:01:27.340Z,42.66
2018-04-29T12:03:55.429Z,41.17
2018-04-29T12:06:23.331Z,41.58
2018-04-29T12:08:51.274Z,41.12
2018-04-29T12:11:19.216Z,41.49
2018-04-29T12:13:47.142Z,40.30
2018-04-29T12:16:15.103Z,40.73
2018-04-29T12:18:43.054Z,39.81
2018-04-29T12:21:10.985Z,39.51
2018-04-29T12:23:38.909Z,40.71
2018-04-29T12:26:06.892Z,40.40
2018-04-29T12:28:34.821Z,41.03
2018-04-29T12:31:02.735Z,42.26
2018-04-29T12:33:30.670Z,41.30
2018-04-29T12:35:58.590Z,42.25
2018-04-29T12:38:26.499Z,42.42
2018-04-29T12:40:54.430Z,41.68
2018-04-29T12:43:22.374Z,41.90
2018-04-29T12:45:50.323Z,42.03
2018-04-29T12:48:18.271Z,43.44
2018-04-29T12:50:46.212Z,45.10
2018-04-29T12:53:14.127Z,45.12
2018-04-29T12:55:42.115Z,46.19
2018-04-29T12:58:10.097Z,46.11
2018-04-29T13:00:38.641Z,46.03
2018-04-29T13:03:06.627Z,46.27
2018-04-29T13:05:34.721Z,45.61
2018-04-29T13:08:02.835Z,45.06
2018-04-29T13:10:30.756Z,44.58
2018-04-29T13:12:58.729Z,46.08
2018-04-29T13:15:26.671Z,46.25
2018-04-29T13:17:54.576Z,46.76
2018-04-29T13:20:22.540Z,47.37
2018-04-29T13:22:50.447Z,47.16
2018-04-29T13:25:18.392Z,46.44
2018-04-29T13:27:46.344Z,46.59
2018-04-29T13:30:14.327Z,46.37
2018-04-29T13:32:42.251Z,45.83
2018-04-29T13:35:10.834Z,45.59
2018-04-29T13:37:38.800Z,45.17
2018-04-29T13:40:06.737Z,44.23
2018-04-29T13:42:34.680Z,43.29
2018-04-29T13:45:02.624Z,43.47
2018-04-29T13:47:30.550Z,43.80
2018-04-29T13:49:58.520Z,44.24
2018-04-29T13:52:26.433Z,44.31
2018-04-29T13:54:54.387Z,44.71
2018-04-29T13:57:22.311Z,45.80
2018-04-29T13:59:50.264Z,45.68
2018-04-29T14:02:18.229Z,46.06
2018-04-29T14:04:46.138Z,45.16
2018-04-29T14:07:14.150Z,45.89
2018-04-29T14:09:42.007Z,46.14
2018-04-29T14:12:09.934Z,46.15
2018-04-29T14:14:37.844Z,46.63
2018-04-29T14:17:05.773Z,47.24
2018-04-29T14:19:33.726Z,46.63
2018-04-29T14:22:01.674Z,47.59
2018-04-29T14:24:29.607Z,47.50
2018-04-29T14:26:58.418Z,47.83
2018-04-29T14:29:26.453Z,47.42
2018-04-29T14:31:54.407Z,47.64
2018-04-29T14:34:22.368Z,47.99
2018-04-29T14:36:50.320Z,48.02
2018-04-29T14:39:18.244Z,48.01
2018-04-29T14:41:46.245Z,48.64
2018-04-29T14:44:14.204Z,49.39
2018-04-29T14:46:42.103Z,49.12
2018-04-29T14:49:10.067Z,49.44
2018-04-29T14:51:38.032Z,49.70
2018-04-29T14:54:06.044Z,50.15
2018-04-29T14:56:33.946Z,50.37
2018-04-29T14:59:01.865Z,49.79
2018-04-29T15:01:29.809Z,49.24
2018-04-29T15:03:57.823Z,48.69
2018-04-29T15:06:25.781Z,49.27
2018-04-29T15:08:53.693Z,49.18
2018-04-29T15:11:21.716Z,49.00
2018-04-29T15:13:49.759Z,49.00
2018-04-29T15:16:17.761Z,49.33
2018-04-29T15:18:57.394Z,49.61
2018-04-29T15:21:25.353Z,50.05
2018-04-29T15:23:53.338Z,49.94
2018-04-29T15:26:21.382Z,50.59
2018-04-29T15:28:49.414Z,49.92
2018-04-29T15:31:17.498Z,50.05
2018-04-29T15:33:45.414Z,49.98
2018-04-29T15:36:13.380Z,50.69
2018-04-29T15:38:41.377Z,52.94
2018-04-29T15:41:09.941Z,51.12
2018-04-29T15:43:37.840Z,51.56
2018-04-29T15:46:05.762Z,52.24
2018-04-29T15:48:33.685Z,51.46
2018-04-29T15:51:01.623Z,51.32
2018-04-29T15:53:29.569Z,50.98
2018-04-29T15:55:57.511Z,51.55
2018-04-29T15:58:25.478Z,51.40
2018-04-29T16:00:53.363Z,52.62
2018-04-29T16:03:21.317Z,53.26
2018-04-29T16:05:49.238Z,52.57
2018-04-29T16:08:17.203Z,52.14
2018-04-29T16:10:45.114Z,53.01
2018-04-29T16:13:13.073Z,53.33
2018-04-29T16:15:41.003Z,53.24
2018-04-29T16:18:08.945Z,53.66
2018-04-29T16:20:36.880Z,53.45
2018-04-29T16:23:04.811Z,54.17
2018-04-29T16:25:32.774Z,53.97
2018-04-29T16:28:00.696Z,54.29
2018-04-29T16:30:28.624Z,54.04
2018-04-29T16:32:56.627Z,54.87
2018-04-29T16:35:24.582Z,54.60
2018-04-29T16:37:52.603Z,55.36
2018-04-29T16:40:20.735Z,55.77
2018-04-29T16:42:48.672Z,55.81
2018-04-29T16:45:16.887Z,56.19
2018-04-29T16:47:44.814Z,56.66
2018-04-29T16:50:12.763Z,57.15
2018-04-29T16:52:40.679Z,57.87
2018-04-29T16:55:08.600Z,56.84
2018-04-29T16:57:36.628Z,57.04
2018-04-29T17:00:04.541Z,57.13
2018-04-29T17:02:32.465Z,56.58
2018-04-29T17:05:00.392Z,57.37
2018-04-29T17:07:28.371Z,57.93
2018-04-29T17:09:56.343Z,58.41
2018-04-29T17:12:24.295Z,58.41
2018-04-29T17:14:52.423Z,58.17
2018-04-29T17:17:20.424Z,60.02
2018-04-29T17:19:48.444Z,59.19
2018-04-29T17:22:16.433Z,59.74
2018-04-29T17:24:44.459Z,59.99
2018-04-29T17:27:12.407Z,60.60
2018-04-29T17:29:40.368Z,61.45
2018-04-29T17:32:08.280Z,61.71
2018-04-29T17:34:36.210Z,61.99
2018-04-29T17:37:04.136Z,61.65
2018-04-29T17:39:32.048Z,62.18
2018-04-29T17:41:59.981Z,62.45
2018-04-29T17:44:27.911Z,63.76
2018-04-29T17:46:55.852Z,62.74
2018-04-29T17:49:23.771Z,62.70
2018-04-29T17:51:53.146Z,62.53
2018-04-29T17:54:21.160Z,63.05
2018-04-29T17:56:51.467Z,62.97
2018-04-29T17:59:19.382Z,64.35
2018-04-29T18:01:47.299Z,64.66
2018-04-29T18:04:15.299Z,64.86
2018-04-29T18:06:46.865Z,64.97
2018-04-29T18:09:18.386Z,66.60
2018-04-29T18:11:46.300Z,66.81
2018-04-29T18:14:14.233Z,67.48
2018-04-29T18:16:42.148Z,66.62
2018-04-29T18:19:10.055Z,67.36
2018-04-29T18:21:37.982Z,67.72
2018-04-29T18:24:05.896Z,66.91
2018-04-29T18:26:33.840Z,65.48
2018-04-29T18:29:01.783Z,64.32
2018-04-29T18:31:29.729Z,63.92
2018-04-29T18:33:57.673Z,62.15
2018-04-29T18:36:25.606Z,61.74
2018-04-29T18:38:53.554Z,62.48
2018-04-29T18:41:21.443Z,62.00
2018-04-29T18:43:49.384Z,61.08
2018-04-29T18:46:17.319Z,62.05
2018-04-29T18:48:45.243Z,62.80
2018-04-29T18:51:13.276Z,63.16
2018-04-29T18:53:41.085Z,63.98
2018-04-29T18:56:09.059Z,64.00
2018-04-29T18:58:36.943Z,64.50
2018-04-29T19:01:04.858Z,65.64
2018-04-29T19:03:32.833Z,65.27
2018-04-29T19:06:00.759Z,64.08
2018-04-29T19:08:28.839Z,64.34
2018-04-29T19:10:56.767Z,64.88
2018-04-29T19:13:24.699Z,64.09
2018-04-29T19:15:52.664Z,64.01
2018-04-29T19:18:20.619Z,63.31
2018-04-29T19:20:48.532Z,63.53
2018-04-29T19:23:16.447Z,63.72
2018-04-29T19:25:44.363Z,63.81
2018-04-29T19:28:12.280Z,63.60
2018-04-29T19:30:40.225Z,63.37
2018-04-29T19:33:08.167Z,63.15
2018-04-29T19:35:36.074Z,63.83
2018-04-29T19:38:04.010Z,63.41
2018-04-29T19:40:31.922Z,63.66
2018-04-29T19:42:59.895Z,63.55
2018-04-29T19:45:27.812Z,63.85
2018-04-29T19:47:55.705Z,63.98
2018-04-29T19:50:23.623Z,66.14
2018-04-29T19:52:51.776Z,64.85
2018-04-29T19:55:19.937Z,63.56
2018-04-29T19:57:47.834Z,63.65
2018-04-29T20:00:15.791Z,63.28
2018-04-29T20:02:43.740Z,63.27
2018-04-29T20:05:11.696Z,62.44
2018-04-29T20:07:40.290Z,62.64
2018-04-29T20:10:09.112Z,62.93
2018-04-29T20:12:37.027Z,63.68
2018-04-29T20:15:04.936Z,63.38
2018-04-29T20:17:33.025Z,62.74
2018-04-29T20:20:00.934Z,63.12
2018-04-29T20:22:28.896Z,63.56
2018-04-29T20:24:56.826Z,63.47
2018-04-29T20:27:24.769Z,63.52
2018-04-29T20:29:52.702Z,63.11
2018-04-29T20:32:32.423Z,62.37
2018-04-29T20:35:00.351Z,62.42
2018-04-29T20:37:28.322Z,63.63
2018-04-29T20:39:56.218Z,63.15
2018-04-29T20:42:24.172Z,63.19
2018-04-29T20:44:52.119Z,63.44
2018-04-29T20:47:20.130Z,63.88
2018-04-29T20:49:48.046Z,63.35
2018-04-29T20:52:15.972Z,64.44
2018-04-29T20:54:43.867Z,64.07
2018-04-29T20:57:11.807Z,64.23
2018-04-29T20:59:39.720Z,64.29
2018-04-29T21:02:07.649Z,64.52
2018-04-29T21:04:35.605Z,64.81
2018-04-29T21:07:03.541Z,64.97
2018-04-29T21:09:31.591Z,65.66
2018-04-29T21:11:59.518Z,64.94
2018-04-29T21:14:27.423Z,65.16
2018-04-29T21:16:55.355Z,66.04
2018-04-29T21:19:23.347Z,65.78
2018-04-29T21:21:51.279Z,65.57
2018-04-29T21:24:19.195Z,66.20
2018-04-29T21:26:47.131Z,65.93
2018-04-29T21:29:15.076Z,66.30
2018-04-29T21:31:42.999Z,66.17
2018-04-29T21:34:10.903Z,66.30
2018-04-29T21:36:38.837Z,65.75
2018-04-29T21:39:06.763Z,64.84
2018-04-29T21:41:34.709Z,66.11
2018-04-29T21:44:02.627Z,66.49
2018-04-29T21:46:30.539Z,66.14
2018-04-29T21:48:58.465Z,65.98
2018-04-29T21:51:26.396Z,66.24
2018-04-29T21:53:54.827Z,66.09
2018-04-29T21:56:22.782Z,66.17
2018-04-29T21:58:50.726Z,65.65
2018-04-29T22:01:18.607Z,65.09
2018-04-29T22:03:46.552Z,66.09
2018-04-29T22:06:14.461Z,66.85
2018-04-29T22:08:42.392Z,67.02
2018-04-29T22:11:10.336Z,67.09
2018-04-29T22:13:38.251Z,68.21
2018-04-29T22:16:06.164Z,68.57
2018-04-29T22:18:34.089Z,68.84
2018-04-29T22:21:02.038Z,68.58
2018-04-29T22:23:29.941Z,68.39
2018-04-29T22:25:57.899Z,69.59
2018-04-29T22:28:25.821Z,70.21
2018-04-29T22:30:53.760Z,70.01
2018-04-29T22:33:21.684Z,69.81
2018-04-29T22:35:49.615Z,70.00
2018-04-29T22:38:17.583Z,70.06
2018-04-29T22:40:45.502Z,70.24
2018-04-29T22:43:13.418Z,69.23
2018-04-29T22:45:41.373Z,69.07
2018-04-29T22:48:09.295Z,69.07
2018-04-29T22:50:37.227Z,68.52
2018-04-29T22:53:05.131Z,69.68
2018-04-29T22:55:33.062Z,68.74
2018-04-29T22:58:01.022Z,69.13
2018-04-29T23:00:28.954Z,69.13
2018-04-29T23:02:56.867Z,69.74
2018-04-29T23:05:24.839Z,68.81
2018-04-29T23:07:52.767Z,67.94
2018-04-29T23:10:20.687Z,68.86
2018-04-29T23:12:48.629Z,68.13
2018-04-29T23:15:16.647Z,68.33
2018-04-29T23:17:44.579Z,68.87
2018-04-29T23:20:12.519Z,68.88
2018-04-29T23:22:40.447Z,68.32
2018-04-29T23:25:08.377Z,68.94
2018-04-29T23:27:36.291Z,68.86
2018-04-29T23:30:04.207Z,68.65
2018-04-29T23:32:32.135Z,68.30
2018-04-29T23:35:00.055Z,68.84
2018-04-29T23:37:28.002Z,67.95
2018-04-29T23:39:55.924Z,68.32
2018-04-29T23:42:23.841Z,68.37
2018-04-29T23:44:51.771Z,67.56
2018-04-29T23:47:19.685Z,67.36
2018-04-29T23:49:47.650Z,67.68
2018-04-29T23:52:15.561Z,67.74
2018-04-29T23:54:43.492Z,67.24
2018-04-29T23:57:11.423Z,67.62
2018-04-29T23:59:39.345Z,67.48
